createdAt,value
2018-11-11T00:03:13.289Z,40.00
2018-11-11T00:08:08.163Z,39.63
2018-11-11T00:13:12.602Z,36.20
2018-11-11T00:18:10.141Z,40.93
2018-11-11T00:23:05.450Z,42.47
2018-11-11T00:28:00.680Z,42.53
2018-11-11T00:33:00.938Z,41.03
2018-11-11T00:37:56.262Z,43.23
2018-11-11T00:42:51.550Z,43.23
2018-11-11T00:47:47.570Z,35.23
2018-11-11T00:52:43.169Z,40.47
2018-11-11T00:57:47.008Z,39.00
2018-11-11T01:02:44.047Z,39.23
2018-11-11T01:07:47.271Z,37.77
2018-11-11T01:12:46.624Z,35.17
2018-11-11T01:17:47.217Z,40.67
2018-11-11T01:22:42.782Z,39.37
2018-11-11T01:27:44.232Z,41.60
2018-11-11T01:32:43.396Z,39.97
2018-11-11T01:37:38.419Z,43.47
2018-11-11T01:42:33.554Z,44.87
2018-11-11T01:47:28.641Z,43.40
2018-11-11T01:52:35.572Z,36.40
2018-11-11T01:57:30.592Z,39.97
2018-11-11T02:02:32.564Z,35.20
2018-11-11T02:07:27.631Z,41.40
2018-11-11T02:12:23.115Z,39.60
2018-11-11T02:17:18.334Z,43.03
2018-11-11T02:22:13.348Z,42.73
2018-11-11T02:27:08.349Z,39.40
2018-11-11T02:32:03.262Z,41.93
2018-11-11T02:37:02.670Z,42.90
2018-11-11T02:42:04.321Z,43.37
2018-11-11T02:47:06.564Z,39.40
2018-11-11T02:52:07.923Z,36.73
2018-11-11T02:57:13.127Z,39.33
2018-11-11T03:02:08.309Z,40.67
2018-11-11T03:07:03.318Z,39.70
2018-11-11T03:11:58.272Z,49.47
2018-11-11T03:17:02.363Z,45.03
2018-11-11T03:21:57.322Z,52.33
2018-11-11T03:26:52.339Z,51.93
2018-11-11T03:31:47.376Z,45.20
2018-11-11T03:36:43.046Z,39.87
2018-11-11T03:41:42.915Z,44.33
2018-11-11T03:46:41.608Z,43.27
2018-11-11T03:51:40.928Z,46.87
2018-11-11T03:56:37.639Z,45.23
2018-11-11T04:01:37.350Z,42.63
2018-11-11T04:06:40.922Z,47.13
2018-11-11T04:11:40.494Z,41.90
2018-11-11T04:16:36.389Z,37.77
2018-11-11T04:21:32.047Z,37.20
2018-11-11T04:26:27.744Z,35.93
2018-11-11T04:31:22.710Z,37.43
2018-11-11T04:36:17.590Z,35.17
2018-11-11T04:41:12.428Z,34.80
2018-11-11T04:46:07.343Z,34.13
2018-11-11T04:51:02.151Z,31.83
2018-11-11T04:55:56.948Z,56.57
2018-11-11T05:00:51.782Z,35.93
2018-11-11T05:05:46.642Z,41.60
2018-11-11T05:10:41.470Z,40.40
2018-11-11T05:15:36.304Z,33.37
2018-11-11T05:20:32.545Z,38.20
2018-11-11T05:25:27.346Z,37.97
2018-11-11T05:30:24.884Z,31.03
2018-11-11T05:35:19.725Z,37.27
2018-11-11T05:40:14.947Z,42.97
2018-11-11T05:45:13.157Z,36.60
2018-11-11T05:50:13.280Z,36.30
2018-11-11T05:55:19.561Z,32.23
2018-11-11T06:00:23.033Z,31.13
2018-11-11T06:05:18.025Z,34.80
2018-11-11T06:10:14.280Z,36.33
2018-11-11T06:15:11.829Z,39.67
2018-11-11T06:20:09.601Z,42.23
2018-11-11T06:25:04.665Z,41.53
2018-11-11T06:30:00.866Z,34.73
2018-11-11T06:34:57.301Z,40.50
2018-11-11T06:39:57.496Z,39.13
2018-11-11T06:44:56.375Z,40.97
2018-11-11T06:49:51.734Z,38.67
2018-11-11T06:54:46.595Z,40.00
2018-11-11T06:59:41.768Z,32.33
2018-11-11T07:04:40.473Z,43.13
2018-11-11T07:09:38.232Z,39.47
2018-11-11T07:14:34.587Z,43.43
2018-11-11T07:19:36.390Z,37.70
2018-11-11T07:24:31.219Z,37.47
2018-11-11T07:29:26.053Z,42.80
2018-11-11T07:34:22.386Z,37.60
2018-11-11T07:39:17.581Z,44.30
2018-11-11T07:44:32.182Z,49.40
2018-11-11T07:49:37.200Z,46.63
2018-11-11T08:05:37.746Z,44.00
2018-11-11T08:10:51.719Z,47.90
2018-11-11T08:18:19.116Z,41.90
2018-11-11T08:23:26.304Z,36.10
2018-11-11T08:30:51.126Z,43.73
2018-11-11T08:35:55.662Z,42.27
2018-11-11T08:41:00.803Z,41.07
2018-11-11T08:46:17.734Z,45.80
2018-11-11T09:02:03.281Z,44.10
2018-11-11T09:07:00.901Z,49.57
2018-11-11T09:11:55.910Z,46.87
2018-11-11T09:21:16.199Z,46.87
2018-11-11T09:26:16.696Z,45.47
2018-11-11T09:31:11.962Z,47.17
2018-11-11T09:36:07.995Z,37.47
2018-11-11T09:41:24.920Z,41.07
2018-11-11T09:46:19.817Z,55.87
2018-11-11T09:51:14.619Z,43.37
2018-11-11T09:56:09.602Z,39.60
2018-11-11T10:01:48.706Z,32.10
2018-11-11T10:06:47.999Z,33.17
2018-11-11T10:13:50.609Z,32.87
2018-11-11T10:18:51.557Z,31.57
2018-11-11T10:29:47.805Z,33.27
2018-11-11T10:34:51.014Z,30.23
2018-11-11T10:40:00.646Z,27.53
2018-11-11T10:45:03.992Z,29.50
2018-11-11T10:50:01.540Z,24.70
2018-11-11T10:54:57.592Z,26.23
2018-11-11T10:59:53.255Z,26.60
2018-11-11T11:05:00.831Z,29.77
2018-11-11T11:09:58.157Z,25.37
2018-11-11T11:15:01.712Z,26.57
2018-11-11T11:25:23.983Z,20.93
2018-11-11T11:30:20.379Z,22.20
2018-11-11T11:41:04.022Z,21.27
2018-11-11T11:56:15.632Z,33.53
2018-11-11T12:10:17.453Z,33.70
2018-11-11T12:44:26.160Z,22.13
2018-11-11T12:55:13.989Z,23.27
2018-11-11T13:00:32.733Z,21.20
2018-11-11T13:05:36.529Z,19.97
2018-11-11T13:10:48.913Z,22.00
2018-11-11T13:15:44.967Z,20.20
2018-11-11T13:20:42.499Z,18.20
2018-11-11T13:25:39.425Z,19.77
2018-11-11T13:30:35.935Z,19.47
2018-11-11T13:35:55.824Z,18.53
2018-11-11T13:40:51.167Z,16.70
2018-11-11T13:45:48.646Z,17.57
2018-11-11T13:56:17.239Z,15.97
2018-11-11T14:01:30.636Z,17.40
2018-11-11T14:06:29.512Z,17.63
2018-11-11T14:11:26.188Z,18.60
2018-11-11T14:16:23.193Z,19.07
2018-11-11T14:21:18.447Z,17.70
2018-11-11T14:26:17.171Z,18.93
2018-11-11T14:37:08.386Z,17.33
2018-11-11T14:42:10.837Z,17.40
2018-11-11T14:47:19.111Z,15.57
2018-11-11T14:52:33.310Z,15.40
2018-11-11T14:59:50.348Z,19.23
2018-11-11T15:04:46.598Z,18.43
2018-11-11T15:09:44.463Z,16.27
2018-11-11T15:14:41.848Z,16.23
2018-11-11T15:19:42.348Z,17.07
2018-11-11T15:24:49.285Z,19.97
2018-11-11T15:29:50.036Z,15.37
2018-11-11T15:35:04.238Z,17.37
2018-11-11T15:45:28.866Z,18.23
2018-11-11T16:01:23.733Z,18.03
2018-11-11T16:06:18.726Z,16.77
2018-11-11T16:11:13.628Z,17.23
2018-11-11T16:16:09.018Z,18.57
2018-11-11T16:21:04.031Z,21.30
2018-11-11T16:25:59.206Z,21.60
2018-11-11T16:30:55.559Z,20.00
2018-11-11T16:36:16.499Z,17.17
2018-11-11T16:41:12.456Z,17.13
2018-11-11T16:46:08.205Z,15.90
2018-11-11T16:51:04.573Z,16.60
2018-11-11T16:56:00.967Z,18.63
2018-11-11T17:06:22.472Z,20.70
2018-11-11T17:11:17.872Z,24.80
2018-11-11T17:16:14.311Z,24.03
2018-11-11T17:21:16.341Z,27.80
2018-11-11T17:26:11.477Z,21.67
2018-11-11T17:31:07.034Z,18.57
2018-11-11T17:36:03.448Z,20.63
2018-11-11T17:41:03.842Z,25.03
2018-11-11T17:45:59.946Z,26.23
2018-11-11T17:50:55.232Z,21.63
2018-11-11T17:55:52.843Z,15.13
2018-11-11T18:00:48.050Z,14.67
2018-11-11T18:05:43.458Z,14.63
2018-11-11T18:10:38.819Z,13.77
2018-11-11T18:15:44.355Z,15.90
2018-11-11T18:20:46.679Z,12.97
2018-11-11T18:25:41.867Z,11.70
2018-11-11T18:30:37.083Z,12.13
2018-11-11T18:36:14.802Z,14.30
2018-11-11T18:41:12.106Z,13.50
2018-11-11T18:51:46.142Z,14.93
2018-11-11T18:56:50.565Z,14.30
2018-11-11T19:01:47.057Z,15.27
2018-11-11T19:06:43.342Z,13.70
2018-11-11T19:11:40.533Z,15.07
2018-11-11T19:16:35.712Z,12.90
2018-11-11T19:21:31.841Z,14.37
2018-11-11T19:26:29.055Z,15.00
2018-11-11T19:31:42.221Z,13.73
2018-11-11T19:36:43.618Z,13.43
2018-11-11T19:41:45.927Z,13.67
2018-11-11T19:47:08.352Z,15.30
2018-11-11T19:52:14.690Z,14.53
2018-11-11T20:12:55.000Z,10.57
2018-11-11T20:18:09.245Z,11.97
2018-11-11T20:23:18.793Z,15.40
2018-11-11T20:28:25.484Z,16.43
2018-11-11T20:33:28.437Z,17.67
2018-11-11T20:38:27.900Z,14.30
2018-11-11T20:43:31.268Z,19.90
2018-11-11T20:48:40.728Z,21.17
2018-11-11T20:53:36.765Z,18.47
2018-11-11T21:05:26.857Z,25.40
2018-11-11T21:10:44.222Z,20.60
2018-11-11T21:16:19.710Z,17.70
2018-11-11T21:21:50.175Z,18.50
2018-11-11T21:38:06.859Z,24.03
2018-11-11T21:53:02.310Z,19.77
2018-11-11T22:06:06.236Z,17.60
2018-11-11T22:11:01.957Z,21.87
2018-11-11T22:33:08.490Z,28.87
2018-11-11T22:44:20.401Z,21.67
2018-11-11T22:49:27.786Z,18.50
2018-11-11T22:54:28.083Z,15.10
2018-11-11T23:26:57.447Z,16.20
2018-11-11T23:48:39.217Z,17.77
2018-11-11T23:53:55.647Z,17.40
